Simms, Montana
Current Conditions -  °F | °C
As of 4:53 PM on Wednesday 28 Jan 2015 (Local Time) from KGTF Reporting Station
Overcast Overcast  
Wind Chill: 34°   Ceiling: 8000
Heat Index: 39°   Visibility: 10mi
Dew Point: 32°   Wind: 7mph
Humidity: 76%   Direction: 70°ENE
Pressure: 30.31"   Gusts: NA
Location:  47.5°N, 111.93°W
Report Text: KGTF 282353Z 07006KT 10SM FEW065 OVC080 04/00 A3031 RMK AO2 SLP290 T00390000 10083 20039 51020
Loading
Personal Weather Stations






























Interactive Weather Map New forecast layout! Learn more

10-Day Weather Forecast

Advertisements
Track Severe Weather on mobile